createdAt,value
2023-05-12T00:03:52.517Z,1010.90
2023-05-12T00:08:51.592Z,1010.88
2023-05-12T00:13:52.768Z,1010.80
2023-05-12T00:18:53.828Z,1010.77
2023-05-12T00:23:54.827Z,1010.79
2023-05-12T00:28:55.878Z,1010.80
2023-05-12T00:33:56.936Z,1010.77
2023-05-12T00:38:57.978Z,1010.76
2023-05-12T00:43:59.021Z,1010.75
2023-05-12T00:49:00.051Z,1010.72
2023-05-12T00:54:01.140Z,1010.75
2023-05-12T00:59:02.180Z,1010.78
2023-05-12T01:04:04.220Z,1010.75
2023-05-12T01:09:04.275Z,1010.76
2023-05-12T01:14:03.306Z,1010.81
2023-05-12T01:19:05.374Z,1010.81
2023-05-12T01:24:04.560Z,1010.76
2023-05-12T01:29:06.593Z,1010.74
2023-05-12T01:34:05.656Z,1010.70
2023-05-12T01:39:07.696Z,1010.72
2023-05-12T01:44:06.737Z,1010.68
2023-05-12T01:49:07.773Z,1010.73
2023-05-12T01:54:08.902Z,1010.77
2023-05-12T01:59:10.007Z,1010.79
2023-05-12T02:04:11.033Z,1010.77
2023-05-12T02:09:13.043Z,1010.75
2023-05-12T02:14:12.142Z,1010.79
2023-05-12T02:19:14.271Z,1010.77
2023-05-12T02:24:14.994Z,1010.74
2023-05-12T02:29:14.045Z,1010.70
2023-05-12T02:34:15.079Z,1010.70
2023-05-12T02:39:17.114Z,1010.68
2023-05-12T02:44:16.151Z,1010.67
2023-05-12T02:49:18.190Z,1010.65
2023-05-12T02:54:17.227Z,1010.60
2023-05-12T02:59:18.304Z,1010.65
2023-05-12T03:04:19.355Z,1010.61
2023-05-12T03:09:21.400Z,1010.64
2023-05-12T03:14:20.450Z,1010.62
2023-05-12T03:19:21.510Z,1010.61
2023-05-12T03:24:23.555Z,1010.65
2023-05-12T03:29:24.607Z,1010.70
2023-05-12T03:34:23.633Z,1010.65
2023-05-12T03:39:25.693Z,1010.66
2023-05-12T03:44:24.730Z,1010.64
2023-05-12T03:49:26.797Z,1010.57
2023-05-12T03:54:26.824Z,1010.56
2023-05-12T03:59:26.857Z,1010.52
2023-05-12T04:04:26.902Z,1010.56
2023-05-12T04:09:25.968Z,1010.54
2023-05-12T04:14:39.162Z,1010.53
2023-05-12T04:19:27.928Z,1010.54
2023-05-12T04:24:29.991Z,1010.61
2023-05-12T04:29:29.057Z,1010.55
2023-05-12T04:34:31.120Z,1010.66
2023-05-12T04:39:30.180Z,1010.74
2023-05-12T04:44:31.269Z,1010.73
2023-05-12T04:49:32.333Z,1010.74
2023-05-12T04:54:33.374Z,1010.73
2023-05-12T04:59:35.441Z,1010.76
2023-05-12T05:04:34.498Z,1010.76
2023-05-12T05:09:36.672Z,1010.83
2023-05-12T05:14:36.776Z,1010.81
2023-05-12T05:19:50.908Z,1010.85
2023-05-12T05:24:36.751Z,1010.80
2023-05-12T05:29:36.858Z,1010.82
2023-05-12T05:34:37.010Z,1010.82
2023-05-12T05:39:37.008Z,1010.91
2023-05-12T05:44:36.075Z,1010.97
2023-05-12T05:49:38.092Z,1010.93
2023-05-12T05:54:38.124Z,1010.95
2023-05-12T05:59:38.166Z,1010.94
2023-05-12T06:04:38.213Z,1010.93
2023-05-12T06:09:38.228Z,1011.00
2023-05-12T06:14:37.265Z,1011.01
2023-05-12T06:19:38.299Z,1011.04
2023-05-12T06:24:39.340Z,1011.01
2023-05-12T06:29:40.358Z,1011.04
2023-05-12T06:34:42.413Z,1011.03
2023-05-12T06:39:42.441Z,1011.11
2023-05-12T06:44:42.527Z,1011.11
2023-05-12T06:49:42.677Z,1011.05
2023-05-12T06:54:42.700Z,1010.98
2023-05-12T06:59:41.734Z,1011.00
2023-05-12T07:04:42.770Z,1010.93
2023-05-12T07:09:43.809Z,1010.94
2023-05-12T07:14:45.825Z,1010.87
2023-05-12T07:19:46.183Z,1010.96
2023-05-12T07:24:45.500Z,1010.95
2023-05-12T07:29:46.547Z,1010.83
2023-05-12T07:34:48.582Z,1010.81
2023-05-12T07:39:47.636Z,1010.80
2023-05-12T07:44:48.665Z,1010.75
2023-05-12T07:49:49.724Z,1010.75
2023-05-12T07:54:51.107Z,1010.71
2023-05-12T07:59:52.164Z,1010.61
2023-05-12T08:04:55.197Z,1010.64
2023-05-12T08:09:54.223Z,1010.67
2023-05-12T08:14:55.280Z,1010.56
2023-05-12T08:19:57.333Z,1010.64
2023-05-12T08:24:56.424Z,1010.65
2023-05-12T08:29:57.465Z,1010.66
2023-05-12T08:35:00.544Z,1010.73
2023-05-12T08:40:01.607Z,1010.73
2023-05-12T08:45:01.633Z,1010.72
2023-05-12T08:50:01.691Z,1010.76
2023-05-12T08:55:01.044Z,1010.82
2023-05-12T09:00:01.484Z,1010.78
2023-05-12T09:05:02.573Z,1010.74
2023-05-12T09:10:04.600Z,1010.81
2023-05-12T09:15:03.646Z,1010.73
2023-05-12T09:20:04.711Z,1010.66
2023-05-12T09:25:05.798Z,1010.74
2023-05-12T09:30:06.824Z,1010.73
2023-05-12T09:35:08.844Z,1010.76
2023-05-12T09:40:07.898Z,1010.71
2023-05-12T09:45:09.988Z,1010.69
2023-05-12T09:50:10.033Z,1010.68
2023-05-12T09:55:10.836Z,1010.60
2023-05-12T10:00:21.506Z,1010.58
2023-05-12T10:05:09.906Z,1010.60
2023-05-12T10:10:11.972Z,1010.59
2023-05-12T10:15:13.044Z,1010.65
2023-05-12T10:20:14.119Z,1010.61
2023-05-12T10:25:14.490Z,1010.59
2023-05-12T10:30:13.544Z,1010.56
2023-05-12T10:35:14.578Z,1010.51
2023-05-12T10:40:16.733Z,1010.49
2023-05-12T10:45:15.749Z,1010.53
2023-05-12T10:50:16.811Z,1010.51
2023-05-12T10:55:17.953Z,1010.42
2023-05-12T11:00:20.646Z,1010.49
2023-05-12T11:05:20.776Z,1010.43
2023-05-12T11:10:22.103Z,1010.46
2023-05-12T11:15:21.495Z,1010.41
2023-05-12T11:20:22.591Z,1010.46
2023-05-12T11:25:23.927Z,1010.42
2023-05-12T11:30:25.018Z,1010.36
2023-05-12T11:35:27.101Z,1010.31
2023-05-12T11:40:26.164Z,1010.34
2023-05-12T11:45:27.231Z,1010.26
2023-05-12T11:50:28.326Z,1010.32
2023-05-12T11:55:29.386Z,1010.37
2023-05-12T12:00:33.444Z,1010.29
2023-05-12T12:05:30.478Z,1010.36
2023-05-12T12:10:31.526Z,1010.31
2023-05-12T12:15:33.578Z,1010.24
2023-05-12T12:20:33.631Z,1010.21
2023-05-12T12:25:32.661Z,1010.23
2023-05-12T12:30:34.696Z,1010.14
2023-05-12T12:35:34.733Z,1010.14
2023-05-12T12:40:38.679Z,1010.12
2023-05-12T12:45:33.725Z,1010.14
2023-05-12T12:50:35.736Z,1010.08
2023-05-12T12:55:34.790Z,1010.05
2023-05-12T13:00:35.838Z,1010.08
2023-05-12T13:05:37.828Z,1010.10
2023-05-12T13:10:36.883Z,1010.03
2023-05-12T13:15:37.913Z,1010.09
2023-05-12T13:20:38.956Z,1009.92
2023-05-12T13:25:39.980Z,1009.92
2023-05-12T13:30:42.049Z,1009.88
2023-05-12T13:35:41.067Z,1009.82
2023-05-12T13:40:42.096Z,1009.84
2023-05-12T13:45:43.185Z,1009.74
2023-05-12T13:50:44.253Z,1009.71
2023-05-12T13:55:45.294Z,1009.70
2023-05-12T14:00:46.331Z,1009.71
2023-05-12T14:05:48.412Z,1009.79
2023-05-12T14:10:47.426Z,1009.58
2023-05-12T14:15:49.958Z,1009.59
2023-05-12T14:20:49.331Z,1009.68
2023-05-12T14:25:51.362Z,1009.64
2023-05-12T14:30:50.402Z,1009.76
2023-05-12T14:36:03.265Z,1009.66
2023-05-12T14:40:53.385Z,1009.62
2023-05-12T14:45:54.696Z,1009.59
2023-05-12T14:50:52.902Z,1009.51
2023-05-12T14:55:51.942Z,1009.52
2023-05-12T15:00:55.030Z,1009.55
2023-05-12T15:06:05.509Z,1009.56
2023-05-12T15:10:54.963Z,1009.43
2023-05-12T15:15:56.759Z,1009.47
2023-05-12T15:20:57.025Z,1009.42
2023-05-12T15:25:56.083Z,1009.43
2023-05-12T15:30:57.124Z,1009.42
2023-05-12T15:35:58.131Z,1009.46
2023-05-12T15:40:59.157Z,1009.45
2023-05-12T15:46:00.259Z,1009.47
2023-05-12T15:51:02.300Z,1009.56
2023-05-12T15:56:02.351Z,1009.58
2023-05-12T16:01:01.465Z,1009.58
2023-05-12T16:06:03.534Z,1009.68
2023-05-12T16:11:03.581Z,1009.58
2023-05-12T16:16:03.645Z,1009.62
2023-05-12T16:21:02.670Z,1009.63
2023-05-12T16:26:03.718Z,1009.68
2023-05-12T16:31:04.833Z,1009.63
2023-05-12T16:36:05.832Z,1009.57
2023-05-12T16:41:07.941Z,1009.56
2023-05-12T16:46:06.237Z,1009.52
2023-05-12T16:51:07.431Z,1009.59
2023-05-12T16:56:08.819Z,1009.57
2023-05-12T17:01:10.252Z,1009.65
2023-05-12T17:06:22.041Z,1009.59
2023-05-12T17:11:25.857Z,1009.75
2023-05-12T17:16:14.421Z,1009.68
2023-05-12T17:21:21.408Z,1009.69
2023-05-12T17:26:12.800Z,1009.78
2023-05-12T17:31:14.305Z,1009.81
2023-05-12T17:36:13.768Z,1009.81
2023-05-12T17:41:13.244Z,1009.82
2023-05-12T17:46:22.425Z,1009.84
2023-05-12T22:16:50.906Z,1011.47
2023-05-12T22:21:52.932Z,1011.54
2023-05-12T22:26:54.050Z,1011.61
2023-05-12T22:31:53.195Z,1011.60
2023-05-12T22:36:54.342Z,1011.65
2023-05-12T22:41:55.378Z,1011.66
2023-05-12T22:46:57.484Z,1011.60
2023-05-12T22:51:57.539Z,1011.61
2023-05-12T22:56:56.578Z,1011.65
2023-05-12T23:01:57.648Z,1011.66
2023-05-12T23:06:58.718Z,1011.67
2023-05-12T23:12:00.821Z,1011.70
2023-05-12T23:17:00.937Z,1011.68
2023-05-12T23:22:02.053Z,1011.65
2023-05-12T23:27:01.154Z,1011.63
2023-05-12T23:32:02.395Z,1011.66
2023-05-12T23:37:04.494Z,1011.62
2023-05-12T23:42:03.541Z,1011.67
2023-05-12T23:47:05.796Z,1011.62
2023-05-12T23:52:04.892Z,1011.60
2023-05-12T23:57:06.070Z,1011.61
